Time;durP1;ratioP1;P1;durP2;ratioP2;P2;SDS_P1;SDS_P2;PMS_P1;PMS_P2;Temp;Humidity;BMP_temperature;BMP_pressure;BME280_temperature;BME280_humidity;BME280_pressure;Samples;Min_cycle;Max_cycle;Signal;HPM_P1;HPM_P2
2021/03/31 00:00:01;;;;;;;20.40;15.00;;;11.30;99.90;;;;;;5061818;28;20429;-80
2021/03/31 00:02:27;;;;;;;23.40;15.57;;;11.70;99.90;;;;;;5058103;28;20497;-79
2021/03/31 00:04:53;;;;;;;23.10;14.77;;;11.80;99.90;;;;;;5057804;28;20446;-80
2021/03/31 00:07:20;;;;;;;23.10;16.37;;;11.80;99.90;;;;;;5058088;28;20641;-79
2021/03/31 00:09:47;;;;;;;25.47;17.70;;;;;;;;;;5056993;28;20847;-80
2021/03/31 00:12:13;;;;;;;25.83;16.27;;;;;;;;;;5039418;28;20506;-80
2021/03/31 00:14:40;;;;;;;26.70;15.47;;;11.60;99.90;;;;;;5056727;28;20449;-79
2021/03/31 00:17:06;;;;;;;20.70;14.83;;;;;;;;;;5057273;28;20944;-80
2021/03/31 00:19:33;;;;;;;29.63;16.17;;;;;;;;;;5058059;28;20449;-80
2021/03/31 00:21:59;;;;;;;24.30;15.47;;;;;;;;;;5057487;28;20448;-80
2021/03/31 00:24:26;;;;;;;28.10;15.57;;;11.50;99.90;;;;;;5059145;28;20936;-80
2021/03/31 00:26:52;;;;;;;23.23;16.93;;;11.10;99.90;;;;;;5057329;28;20483;-80
2021/03/31 00:29:18;;;;;;;20.87;15.77;;;11.10;99.90;;;;;;5056983;28;20445;-80
2021/03/31 00:31:45;;;;;;;24.20;16.17;;;11.50;99.90;;;;;;5056257;28;20481;-81
2021/03/31 00:34:11;;;;;;;22.87;16.53;;;11.40;99.90;;;;;;5056716;28;20848;-80
2021/03/31 00:36:37;;;;;;;27.23;16.80;;;11.00;99.90;;;;;;5057271;28;20823;-81
2021/03/31 00:39:06;;;;;;;28.30;17.67;;;10.90;99.90;;;;;;5058448;28;20816;-80
2021/03/31 00:41:33;;;;;;;31.33;16.80;;;11.40;99.90;;;;;;5056596;28;20999;-80
2021/03/31 00:44:00;;;;;;;22.07;14.57;;;11.30;99.90;;;;;;5056931;28;20445;-80
2021/03/31 00:46:26;;;;;;;23.80;16.90;;;11.20;99.90;;;;;;5057466;28;20812;-78
2021/03/31 00:48:52;;;;;;;24.03;16.53;;;11.10;99.90;;;;;;5056450;28;20461;-78
2021/03/31 00:51:18;;;;;;;27.00;17.50;;;;;;;;;;5056219;28;21001;-80
2021/03/31 00:53:45;;;;;;;25.10;16.63;;;11.20;99.90;;;;;;5057223;28;20822;-80
2021/03/31 00:56:11;;;;;;;36.10;16.60;;;11.20;99.90;;;;;;5057586;28;20818;-80
2021/03/31 00:58:39;;;;;;;22.30;15.93;;;11.20;99.90;;;;;;5058541;28;20460;-78
2021/03/31 01:01:09;;;;;;;24.53;14.20;;;;;;;;;;5062481;28;20430;-77
2021/03/31 01:03:36;;;;;;;22.50;14.83;;;;;;;;;;5062271;28;20468;-77
2021/03/31 01:06:03;;;;;;;28.17;16.27;;;;;;;;;;5061696;28;20449;-77
2021/03/31 01:08:29;;;;;;;20.00;16.73;;;;;;;;;;5062112;28;20449;-78
2021/03/31 01:10:57;;;;;;;30.30;17.70;;;;;;;;;;5062289;28;20481;-77
2021/03/31 01:13:45;;;;;;;24.73;17.37;;;;;;;;;;5061773;28;20476;-78
2021/03/31 01:16:25;;;;;;;21.97;16.30;;;;;;;;;;5058972;28;20490;-78
2021/03/31 01:18:56;;;;;;;26.27;17.17;;;;;;;;;;5056263;28;20429;-79
2021/03/31 01:21:50;;;;;;;22.50;15.07;;;;;;;;;;5055179;28;20531;-79
2021/03/31 01:24:35;;;;;;;22.47;14.53;;;;;;;;;;5058694;28;20804;-79
2021/03/31 01:27:04;;;;;;;21.53;15.87;;;;;;;;;;5061584;28;20430;-78
2021/03/31 01:29:38;;;;;;;29.40;21.17;;;;;;;;;;5064253;28;20457;-79
2021/03/31 01:32:10;;;;;;;31.50;21.43;;;;;;;;;;5078653;22;20480;-85
2021/03/31 01:34:42;;;;;;;25.70;16.90;;;;;;;;;;5049127;28;20398;-85
2021/03/31 01:37:12;;;;;;;23.27;17.30;;;;;;;;;;5049424;28;20423;-85
2021/03/31 01:39:41;;;;;;;22.13;17.00;;;;;;;;;;5054361;28;20464;-85
2021/03/31 01:42:09;;;;;;;24.17;17.63;;;;;;;;;;5049826;28;20533;-85
2021/03/31 01:44:37;;;;;;;20.33;16.80;;;;;;;;;;5050678;28;20453;-85
2021/03/31 01:47:04;;;;;;;26.13;16.67;;;;;;;;;;5057029;28;20446;-85
2021/03/31 01:49:32;;;;;;;30.90;16.60;;;;;;;;;;5044286;28;20778;-85
2021/03/31 01:52:01;;;;;;;20.30;16.67;;;;;;;;;;5045263;28;20476;-85
2021/03/31 01:54:29;;;;;;;25.73;17.27;;;;;;;;;;5042426;28;20450;-85
2021/03/31 01:56:56;;;;;;;28.60;16.90;;;;;;;;;;5040519;28;20450;-85
2021/03/31 01:59:23;;;;;;;20.60;15.33;;;;;;;;;;5041840;28;20817;-85
2021/03/31 02:01:51;;;;;;;24.53;17.53;;;;;;;;;;5045982;28;20470;-85
2021/03/31 02:04:18;;;;;;;23.73;15.10;;;;;;;;;;5048421;28;20446;-85
2021/03/31 02:06:46;;;;;;;24.67;17.63;;;;;;;;;;5053543;28;20476;-85
2021/03/31 02:09:14;;;;;;;29.23;16.40;;;;;;;;;;5050699;28;20477;-85
2021/03/31 02:11:43;;;;;;;26.23;17.10;;;;;;;;;;5045729;28;20486;-85
2021/03/31 02:14:09;;;;;;;29.33;16.00;;;;;;;;;;5044152;28;20430;-86
2021/03/31 02:16:36;;;;;;;24.83;16.40;;;;;;;;;;5040322;28;20441;-85
2021/03/31 02:19:03;;;;;;;20.27;15.87;;;;;;;;;;5041925;28;20442;-86
2021/03/31 02:21:30;;;;;;;20.60;16.10;;;;;;;;;;5039194;28;20457;-85
2021/03/31 02:23:57;;;;;;;25.00;18.80;;;;;;;;;;5040187;28;20439;-85
2021/03/31 02:26:25;;;;;;;27.37;16.93;;;;;;;;;;5039554;28;20447;-85
2021/03/31 02:28:52;;;;;;;26.57;17.20;;;;;;;;;;5041447;28;20914;-85
2021/03/31 02:31:20;;;;;;;23.97;17.43;;;10.60;99.90;;;;;;5039776;28;20486;-85
2021/03/31 02:33:47;;;;;;;22.40;17.80;;;;;;;;;;5038927;28;20446;-85
2021/03/31 02:36:13;;;;;;;22.97;17.30;;;10.30;99.90;;;;;;5038720;28;20439;-85
2021/03/31 02:38:40;;;;;;;25.80;18.03;;;;;;;;;;5038723;28;20465;-85
2021/03/31 02:41:07;;;;;;;22.70;16.40;;;;;;;;;;5038363;28;20446;-86
2021/03/31 02:43:37;;;;;;;23.83;16.97;;;;;;;;;;5038262;28;20471;-85
2021/03/31 02:46:04;;;;;;;21.90;16.70;;;;;;;;;;5038891;28;20996;-85
2021/03/31 02:48:32;;;;;;;25.63;17.47;;;;;;;;;;5038700;28;20474;-85
2021/03/31 02:50:59;;;;;;;23.07;17.93;;;;;;;;;;5038453;28;20509;-85
2021/03/31 02:53:27;;;;;;;29.10;18.83;;;;;;;;;;5038201;28;20478;-86
2021/03/31 02:55:55;;;;;;;26.50;17.17;;;;;;;;;;5038538;28;20949;-85
2021/03/31 02:58:22;;;;;;;28.10;19.33;;;;;;;;;;5039395;28;20450;-85
2021/03/31 03:00:50;;;;;;;29.30;18.70;;;;;;;;;;5038736;28;20447;-85
2021/03/31 03:03:16;;;;;;;27.93;19.60;;;;;;;;;;5038345;28;20856;-85
2021/03/31 03:05:43;;;;;;;31.70;18.50;;;;;;;;;;5039501;28;20937;-86
2021/03/31 03:08:10;;;;;;;24.60;18.27;;;;;;;;;;5040895;28;20449;-86
2021/03/31 03:10:36;;;;;;;30.00;18.70;;;;;;;;;;5039734;28;20497;-86
2021/03/31 03:13:04;;;;;;;25.90;18.50;;;;;;;;;;5039220;28;20834;-85
2021/03/31 03:15:32;;;;;;;24.23;18.40;;;;;;;;;;5039083;28;21034;-85
2021/03/31 03:17:59;;;;;;;27.67;19.23;;;;;;;;;;5039853;28;20425;-84
2021/03/31 03:20:26;;;;;;;27.10;18.83;;;;;;;;;;5043623;28;20447;-85
2021/03/31 03:22:54;;;;;;;30.23;18.10;;;;;;;;;;5045470;28;20474;-85
2021/03/31 03:25:21;;;;;;;31.37;22.47;;;;;;;;;;5042607;28;20447;-86
2021/03/31 03:27:48;;;;;;;33.47;20.13;;;;;;;;;;5038680;28;20452;-85
2021/03/31 03:30:16;;;;;;;32.57;20.23;;;;;;;;;;5041694;28;20536;-84
2021/03/31 03:32:43;;;;;;;23.63;19.53;;;;;;;;;;5040048;28;20895;-85
2021/03/31 03:35:11;;;;;;;28.40;20.00;;;;;;;;;;5040659;28;20451;-85
2021/03/31 03:37:38;;;;;;;24.10;19.60;;;;;;;;;;5044616;28;20508;-85
2021/03/31 03:40:05;;;;;;;23.20;18.37;;;;;;;;;;5051709;28;20430;-85
2021/03/31 03:42:32;;;;;;;31.27;19.93;;;;;;;;;;5052915;28;20454;-85
2021/03/31 03:45:01;;;;;;;29.48;20.25;;;;;;;;;;5051628;28;20443;-85
2021/03/31 03:47:28;;;;;;;28.53;19.93;;;;;;;;;;5052951;28;20254;-84
2021/03/31 03:49:55;;;;;;;32.23;21.30;;;;;;;;;;5050410;28;20482;-85
2021/03/31 03:52:22;;;;;;;25.70;19.73;;;;;;;;;;5042698;28;20525;-86
2021/03/31 03:54:50;;;;;;;30.20;19.80;;;9.80;99.90;;;;;;5043611;28;20450;-84
2021/03/31 03:57:22;;;;;;;28.63;20.43;;;9.80;99.90;;;;;;5040115;28;20805;-86
2021/03/31 03:59:48;;;;;;;23.23;18.63;;;9.70;99.90;;;;;;5042133;28;20439;-85
2021/03/31 04:02:14;;;;;;;29.73;20.73;;;9.60;99.90;;;;;;5039844;28;20466;-85
2021/03/31 04:04:40;;;;;;;28.90;20.03;;;9.70;99.90;;;;;;5041688;28;20806;-85
2021/03/31 04:07:06;;;;;;;34.97;21.33;;;9.60;99.90;;;;;;5040221;28;20434;-85
2021/03/31 04:09:34;;;;;;;28.70;20.08;;;9.60;99.90;;;;;;5049574;28;20437;-85
2021/03/31 04:12:01;;;;;;;29.83;22.17;;;9.60;99.90;;;;;;5053308;28;20224;-84
2021/03/31 04:14:27;;;;;;;26.70;20.90;;;9.70;99.90;;;;;;5052940;28;20443;-85
2021/03/31 04:16:56;;;;;;;31.10;19.03;;;9.40;99.90;;;;;;5045600;28;20522;-84
2021/03/31 04:19:24;;;;;;;30.00;20.43;;;9.40;99.90;;;;;;5038294;28;20450;-85
2021/03/31 04:21:51;;;;;;;26.57;19.40;;;9.40;99.90;;;;;;5040946;28;20524;-86
2021/03/31 04:24:17;;;;;;;30.80;19.50;;;9.10;99.90;;;;;;5038108;28;20446;-85
2021/03/31 04:26:46;;;;;;;31.30;21.63;;;9.50;99.90;;;;;;5041762;28;20457;-86
2021/03/31 04:29:13;;;;;;;39.13;27.03;;;9.30;99.90;;;;;;5044783;28;20429;-86
2021/03/31 04:31:42;;;;;;;29.70;21.90;;;9.20;99.90;;;;;;5040232;28;20501;-85
2021/03/31 04:34:08;;;;;;;27.47;22.40;;;9.40;99.90;;;;;;5036932;28;20842;-85
2021/03/31 04:36:35;;;;;;;35.80;23.17;;;9.30;99.90;;;;;;5040434;28;20421;-85
2021/03/31 04:39:05;;;;;;;33.83;23.10;;;9.20;99.90;;;;;;5037522;28;20451;-86
2021/03/31 04:41:31;;;;;;;29.03;21.77;;;9.80;99.90;;;;;;5037896;28;20425;-85
2021/03/31 04:43:58;;;;;;;32.53;21.03;;;9.90;99.90;;;;;;5040819;28;20817;-85
2021/03/31 04:46:24;;;;;;;42.80;22.50;;;9.60;99.90;;;;;;5039428;28;20522;-85
2021/03/31 04:48:50;;;;;;;31.43;21.20;;;9.60;99.90;;;;;;5038171;28;20878;-86
2021/03/31 04:51:17;;;;;;;29.00;19.83;;;;;;;;;;5038449;28;20478;-85
2021/03/31 04:53:43;;;;;;;28.30;21.40;;;9.40;99.90;;;;;;5049318;28;20435;-85
2021/03/31 04:56:09;;;;;;;37.70;22.60;;;9.10;99.90;;;;;;5045492;28;20450;-87
2021/03/31 04:58:36;;;;;;;30.80;20.27;;;10.00;99.90;;;;;;5043640;28;20446;-85
2021/03/31 05:01:03;;;;;;;32.77;21.53;;;9.40;99.90;;;;;;5042604;28;20443;-86
2021/03/31 05:03:29;;;;;;;33.70;22.20;;;9.90;99.90;;;;;;5047204;28;20462;-85
2021/03/31 05:05:55;;;;;;;32.10;20.90;;;9.30;99.90;;;;;;5058179;28;20835;-85
2021/03/31 05:08:22;;;;;;;32.23;20.30;;;9.10;99.90;;;;;;5053277;28;20476;-85
2021/03/31 05:10:51;;;;;;;27.57;19.43;;;9.20;99.90;;;;;;5044123;28;20493;-85
2021/03/31 05:13:17;;;;;;;31.20;22.00;;;;;;;;;;5051086;28;20454;-85
2021/03/31 05:15:44;;;;;;;31.53;22.07;;;9.20;99.90;;;;;;5058500;28;20427;-85
2021/03/31 05:18:11;;;;;;;39.20;21.77;;;9.70;99.90;;;;;;5050834;28;20473;-85
2021/03/31 05:20:37;;;;;;;29.40;19.77;;;9.00;99.90;;;;;;5042343;28;20544;-85
2021/03/31 05:23:03;;;;;;;37.97;21.57;;;9.30;99.90;;;;;;5054438;28;20458;-85
2021/03/31 05:25:30;;;;;;;33.60;22.10;;;9.20;99.90;;;;;;5056524;28;20443;-85
2021/03/31 05:27:58;;;;;;;31.87;21.17;;;8.90;99.90;;;;;;5043338;28;20451;-85
2021/03/31 05:30:25;;;;;;;32.03;22.93;;;9.50;99.90;;;;;;5040846;28;20581;-85
2021/03/31 05:32:54;;;;;;;26.53;21.50;;;9.40;99.90;;;;;;5043121;28;20470;-85
2021/03/31 05:35:21;;;;;;;40.30;22.03;;;9.50;99.90;;;;;;5042883;28;20443;-85
2021/03/31 05:37:48;;;;;;;34.87;21.50;;;9.60;99.90;;;;;;5041706;28;20446;-85
2021/03/31 05:40:20;;;;;;;33.47;21.77;;;9.20;99.90;;;;;;5042474;28;20453;-86
2021/03/31 05:42:46;;;;;;;29.03;19.70;;;8.50;99.90;;;;;;5043853;28;20466;-85
2021/03/31 05:45:14;;;;;;;26.10;19.80;;;9.50;99.90;;;;;;5058685;28;20415;-85
2021/03/31 05:47:43;;;;;;;28.00;20.10;;;9.60;99.90;;;;;;5058079;28;20445;-85
2021/03/31 05:50:12;;;;;;;41.83;21.00;;;9.40;99.90;;;;;;5057333;28;21049;-85
2021/03/31 05:52:39;;;;;;;32.53;19.50;;;9.10;99.90;;;;;;5056456;28;20462;-85
2021/03/31 05:55:08;;;;;;;22.00;17.87;;;9.70;99.90;;;;;;5057569;28;20474;-85
2021/03/31 05:57:35;;;;;;;25.97;19.67;;;9.70;99.90;;;;;;5057483;28;20461;-85
2021/03/31 06:00:04;;;;;;;27.07;18.40;;;9.90;99.90;;;;;;5058484;28;20437;-85
2021/03/31 06:02:31;;;;;;;24.43;15.33;;;9.70;99.90;;;;;;5059124;28;20456;-84
2021/03/31 06:04:57;;;;;;;31.33;18.10;;;10.10;99.90;;;;;;5057919;28;20438;-84
2021/03/31 06:07:23;;;;;;;23.63;19.00;;;11.10;99.90;;;;;;5056439;28;20430;-85
2021/03/31 06:10:07;;;;;;;21.87;16.30;;;10.40;99.90;;;;;;5054743;28;20454;-85
2021/03/31 06:12:34;;;;;;;18.80;16.03;;;10.20;99.90;;;;;;5045293;28;20541;-84
2021/03/31 06:15:15;;;;;;;22.87;15.10;;;9.90;99.90;;;;;;5046858;28;20955;-84
2021/03/31 06:17:46;;;;;;;29.90;17.20;;;10.40;99.90;;;;;;5047746;28;20435;-85
2021/03/31 06:20:16;;;;;;;23.43;16.70;;;10.50;99.90;;;;;;5044277;28;20812;-83
2021/03/31 06:22:53;;;;;;;24.07;16.77;;;10.20;99.90;;;;;;5044318;28;20542;-83
2021/03/31 06:25:22;;;;;;;22.93;15.80;;;10.20;99.90;;;;;;5043786;28;20426;-84
2021/03/31 06:27:53;;;;;;;21.27;15.80;;;10.40;99.90;;;;;;5043185;28;20454;-84
2021/03/31 06:30:23;;;;;;;22.40;15.93;;;10.30;99.90;;;;;;5043633;28;20505;-83
2021/03/31 06:32:52;;;;;;;22.07;15.60;;;10.80;99.90;;;;;;5044562;28;20496;-84
2021/03/31 06:35:20;;;;;;;19.37;14.80;;;10.90;99.90;;;;;;5050002;28;20456;-84
2021/03/31 06:37:47;;;;;;;23.53;17.20;;;11.00;99.90;;;;;;5046889;28;20534;-83
2021/03/31 06:40:31;;;;;;;23.37;16.33;;;10.70;99.90;;;;;;5044693;28;20466;-82
2021/03/31 06:43:11;;;;;;;27.57;17.53;;;11.10;99.90;;;;;;5044543;28;20467;-84
2021/03/31 06:45:44;;;;;;;35.73;16.80;;;11.20;99.90;;;;;;5045783;28;20461;-83
2021/03/31 06:48:10;;;;;;;24.77;15.40;;;11.20;99.90;;;;;;5045393;28;20497;-82
2021/03/31 06:50:38;;;;;;;27.30;16.70;;;11.40;99.90;;;;;;5049075;28;20486;-83
2021/03/31 06:53:05;;;;;;;21.80;16.17;;;11.40;99.90;;;;;;5046251;28;20466;-84
2021/03/31 06:55:40;;;;;;;27.87;15.90;;;11.50;99.90;;;;;;5045870;28;20454;-85
2021/03/31 06:58:07;;;;;;;20.27;15.00;;;;;;;;;;5046201;28;20521;-84
2021/03/31 07:00:35;;;;;;;22.90;16.30;;;11.70;99.90;;;;;;5044948;28;20976;-84
2021/03/31 07:03:03;;;;;;;28.90;17.60;;;11.90;99.90;;;;;;5044775;28;20478;-83
2021/03/31 07:05:30;;;;;;;20.90;17.10;;;11.90;99.90;;;;;;5044551;28;20466;-84
2021/03/31 07:08:05;;;;;;;24.60;17.10;;;11.90;99.90;;;;;;5043461;28;20964;-83
2021/03/31 07:10:42;;;;;;;21.13;15.23;;;12.10;99.90;;;;;;5044436;28;20466;-84
2021/03/31 07:13:09;;;;;;;23.23;16.50;;;12.40;99.90;;;;;;5044905;28;20530;-83
2021/03/31 07:15:35;;;;;;;21.07;15.23;;;12.40;99.90;;;;;;5045619;28;20461;-83
2021/03/31 07:18:02;;;;;;;22.90;16.70;;;12.30;99.90;;;;;;5044705;28;20917;-84
2021/03/31 07:20:30;;;;;;;19.33;15.70;;;12.60;99.90;;;;;;5045732;28;20474;-83
2021/03/31 07:22:58;;;;;;;22.33;16.17;;;12.70;99.90;;;;;;5044908;28;20570;-84
2021/03/31 07:25:25;;;;;;;24.50;16.87;;;12.90;99.90;;;;;;5043830;28;20435;-84
2021/03/31 07:27:56;;;;;;;24.83;16.07;;;13.00;99.90;;;;;;5044232;28;20446;-84
2021/03/31 07:30:24;;;;;;;21.80;16.47;;;13.20;99.90;;;;;;5044870;28;20482;-83
2021/03/31 07:32:52;;;;;;;22.17;15.10;;;13.20;99.90;;;;;;5056080;23;20493;-81
2021/03/31 07:35:20;;;;;;;32.50;15.87;;;13.30;99.90;;;;;;5046371;28;20447;-81
2021/03/31 07:37:47;;;;;;;17.50;14.10;;;13.60;99.90;;;;;;5046749;28;20433;-81
2021/03/31 07:40:15;;;;;;;21.23;14.50;;;13.20;99.90;;;;;;5042699;28;20453;-82
2021/03/31 07:42:45;;;;;;;15.80;12.30;;;13.70;99.90;;;;;;5043292;28;20462;-81
2021/03/31 07:45:16;;;;;;;20.80;13.27;;;13.60;99.90;;;;;;5043730;28;20447;-81
2021/03/31 07:47:45;;;;;;;20.53;14.40;;;13.90;99.90;;;;;;5042338;28;20423;-81
2021/03/31 07:50:12;;;;;;;22.43;14.70;;;14.00;99.90;;;;;;5041586;28;20481;-82
2021/03/31 07:52:48;;;;;;;18.63;13.13;;;14.10;99.90;;;;;;5039798;28;20553;-82
2021/03/31 07:55:28;;;;;;;17.93;13.00;;;14.30;99.90;;;;;;5040450;28;20449;-85
2021/03/31 07:58:15;;;;;;;19.57;13.07;;;14.30;99.90;;;;;;5040566;28;20485;-82
2021/03/31 08:00:57;;;;;;;18.60;13.43;;;14.40;99.90;;;;;;5041621;28;20789;-83
2021/03/31 08:03:26;;;;;;;18.77;12.33;;;14.40;99.90;;;;;;5041261;28;20905;-80
2021/03/31 08:06:03;;;;;;;24.90;13.50;;;14.50;99.90;;;;;;5039981;28;20452;-83
2021/03/31 08:08:30;;;;;;;20.90;13.50;;;14.60;99.90;;;;;;5041097;28;20535;-83
2021/03/31 08:10:56;;;;;;;19.77;12.63;;;14.70;99.90;;;;;;5040837;28;20470;-83
2021/03/31 08:13:30;;;;;;;16.90;12.90;;;15.00;99.90;;;;;;5043170;28;20458;-81
2021/03/31 08:15:58;;;;;;;19.37;11.90;;;14.90;99.90;;;;;;5041282;28;20452;-83
2021/03/31 08:18:25;;;;;;;24.63;13.43;;;15.20;99.90;;;;;;5041252;28;20477;-83
2021/03/31 08:20:53;;;;;;;21.90;12.97;;;15.30;99.90;;;;;;5042719;28;20442;-83
2021/03/31 08:23:43;;;;;;;19.17;13.30;;;15.50;99.90;;;;;;5043007;28;20474;-83
2021/03/31 08:26:34;;;;;;;22.13;15.37;;;15.50;99.90;;;;;;5042655;28;20438;-83
2021/03/31 08:29:01;;;;;;;19.03;12.23;;;15.60;99.90;;;;;;5043079;28;20433;-83
2021/03/31 08:31:30;;;;;;;23.43;13.50;;;15.70;99.90;;;;;;5046167;28;20608;-82
2021/03/31 08:33:56;;;;;;;20.23;13.50;;;15.70;99.90;;;;;;5048455;28;20948;-82
2021/03/31 08:36:23;;;;;;;21.70;13.90;;;15.80;99.90;;;;;;5045839;28;20442;-82
2021/03/31 08:38:51;;;;;;;27.50;13.60;;;15.90;99.90;;;;;;5043500;28;20457;-82
2021/03/31 08:41:18;;;;;;;22.00;15.43;;;16.00;99.90;;;;;;5044050;28;20431;-80
2021/03/31 08:43:45;;;;;;;21.20;14.17;;;16.10;99.90;;;;;;5049103;28;20500;-81
2021/03/31 08:46:11;;;;;;;20.93;13.50;;;16.20;99.90;;;;;;5053294;28;20512;-82
2021/03/31 08:48:40;;;;;;;22.50;14.20;;;16.20;99.90;;;;;;5051070;28;20468;-83
2021/03/31 08:51:08;;;;;;;21.63;14.70;;;16.40;99.90;;;;;;5044240;28;20485;-84
2021/03/31 08:53:35;;;;;;;30.20;15.77;;;16.20;99.90;;;;;;5043480;28;20474;-82
2021/03/31 08:56:02;;;;;;;29.77;15.47;;;16.40;99.90;;;;;;5042422;28;20486;-82
2021/03/31 08:58:28;;;;;;;25.03;13.90;;;16.50;99.90;;;;;;5042078;28;20794;-82
2021/03/31 09:00:54;;;;;;;21.37;14.60;;;16.50;99.90;;;;;;5042674;28;20442;-82
2021/03/31 09:03:21;;;;;;;25.60;15.67;;;16.80;99.90;;;;;;5043720;28;20509;-82
2021/03/31 09:05:56;;;;;;;25.50;15.10;;;16.80;99.90;;;;;;5045752;28;20446;-82
2021/03/31 09:08:24;;;;;;;24.70;16.80;;;16.80;99.90;;;;;;5047926;28;20448;-82
2021/03/31 09:10:52;;;;;;;22.10;14.13;;;16.90;99.90;;;;;;5045256;28;21040;-81
2021/03/31 09:13:26;;;;;;;27.17;15.63;;;17.10;99.90;;;;;;5048448;28;20466;-80
2021/03/31 09:15:54;;;;;;;30.70;17.00;;;17.10;99.90;;;;;;5056099;28;20438;-81
2021/03/31 09:18:20;;;;;;;24.67;15.73;;;17.30;99.90;;;;;;5057703;28;20454;-79
2021/03/31 09:20:46;;;;;;;26.93;16.60;;;17.40;99.90;;;;;;5049665;28;20442;-82
2021/03/31 09:23:23;;;;;;;27.77;16.67;;;16.80;99.90;;;;;;5043897;28;20848;-83
2021/03/31 09:26:02;;;;;;;29.43;18.77;;;17.60;99.90;;;;;;5042578;28;20920;-83
2021/03/31 09:28:29;;;;;;;32.20;19.03;;;17.60;99.90;;;;;;5043280;28;20477;-81
2021/03/31 09:31:01;;;;;;;26.50;16.40;;;17.40;99.90;;;;;;5050482;28;20465;-82
2021/03/31 09:33:31;;;;;;;28.90;18.57;;;17.30;99.90;;;;;;5055455;28;20481;-80
2021/03/31 09:36:11;;;;;;;28.93;19.10;;;17.40;99.90;;;;;;5052477;28;20450;-81
2021/03/31 09:38:38;;;;;;;24.03;14.87;;;17.60;99.90;;;;;;5049579;28;20429;-82
2021/03/31 09:41:06;;;;;;;26.43;16.67;;;18.40;99.90;;;;;;5047137;28;20446;-84
2021/03/31 09:43:33;;;;;;;22.77;13.87;;;18.00;99.90;;;;;;5045084;28;20470;-82
2021/03/31 09:45:59;;;;;;;31.43;17.37;;;18.00;99.90;;;;;;5046430;28;20446;-84
2021/03/31 09:48:25;;;;;;;23.30;14.17;;;18.20;99.90;;;;;;5047020;28;20451;-83
2021/03/31 09:50:52;;;;;;;22.57;13.77;;;18.00;99.90;;;;;;5042082;28;20489;-83
2021/03/31 09:53:22;;;;;;;23.87;14.07;;;18.30;99.90;;;;;;5042282;28;20478;-84
2021/03/31 09:55:50;;;;;;;42.50;24.03;;;18.90;99.90;;;;;;5044613;28;20430;-84
2021/03/31 09:58:24;;;;;;;41.10;23.37;;;19.50;99.90;;;;;;5045693;28;20856;-84
2021/03/31 10:00:53;;;;;;;25.10;14.17;;;18.80;99.90;;;;;;5053805;28;20432;-85
2021/03/31 10:03:20;;;;;;;24.23;15.13;;;18.90;99.90;;;;;;5051036;28;20478;-85
2021/03/31 10:05:46;;;;;;;26.03;15.50;;;18.70;99.70;;;;;;5044573;28;20452;-85
2021/03/31 10:08:21;;;;;;;31.13;16.93;;;19.20;99.40;;;;;;5045171;28;20943;-86
2021/03/31 10:10:58;;;;;;;22.20;15.37;;;19.30;99.90;;;;;;5048292;28;20487;-87
2021/03/31 10:13:38;;;;;;;28.57;15.90;;;19.70;99.90;;;;;;5047239;28;20452;-84
2021/03/31 10:16:14;;;;;;;24.77;15.10;;;19.60;99.90;;;;;;5044627;28;20445;-85
2021/03/31 10:18:41;;;;;;;28.70;16.53;;;;;;;;;;5045400;28;20467;-85
2021/03/31 10:21:07;;;;;;;22.17;12.77;;;;;;;;;;5045668;28;20429;-86
2021/03/31 10:23:36;;;;;;;21.17;14.87;;;19.90;98.20;;;;;;5044170;28;20472;-85
2021/03/31 10:26:26;;;;;;;22.50;13.10;;;19.80;98.40;;;;;;5054529;28;20438;-85
2021/03/31 10:28:56;;;;;;;25.63;14.23;;;19.90;97.10;;;;;;5057762;28;20451;-85
2021/03/31 10:31:27;;;;;;;22.27;12.00;;;19.90;98.00;;;;;;5056093;28;20997;-85
2021/03/31 10:33:56;;;;;;;19.80;13.10;;;19.70;99.90;;;;;;5054332;28;20544;-87
2021/03/31 10:36:45;;;;;;;26.30;12.97;;;19.70;99.40;;;;;;5051610;28;20435;-86
2021/03/31 10:53:09;;;;;;;;;;;;;;;;;;;;;
2021/03/31 10:56:08;;;;;;;16.47;11.40;;;20.80;97.60;;;;;;4940699;29;20470;-85
2021/03/31 10:58:42;;;;;;;18.40;12.23;;;;;;;;;;4894202;29;20462;-85
2021/03/31 11:06:57;;;;;;;23.13;14.30;;;20.40;97.80;;;;;;5031810;23;20629;-79
2021/03/31 11:09:23;;;;;;;19.40;12.20;;;20.50;96.70;;;;;;5038476;28;20454;-79
2021/03/31 11:11:49;;;;;;;21.10;11.97;;;20.50;97.20;;;;;;5037945;28;21003;-79
2021/03/31 11:14:17;;;;;;;21.23;11.87;;;20.60;94.90;;;;;;5039271;28;20447;-79
2021/03/31 11:16:50;;;;;;;20.00;13.27;;;20.40;96.20;;;;;;5038741;28;20488;-79
2021/03/31 11:19:30;;;;;;;24.07;12.63;;;20.70;96.20;;;;;;5038651;28;20943;-79
2021/03/31 11:25:32;;;;;;;22.27;13.10;;;20.70;96.70;;;;;;5039018;28;20427;-80
2021/03/31 11:27:37;;;;;;;19.70;11.67;;;20.70;93.70;;;;;;5037819;28;20542;-79
2021/03/31 11:30:08;;;;;;;17.80;11.50;;;20.90;95.80;;;;;;5041119;28;20462;-79
2021/03/31 11:32:34;;;;;;;31.23;13.70;;;21.00;94.70;;;;;;5044145;28;20466;-80
2021/03/31 11:35:00;;;;;;;20.73;11.57;;;21.00;93.00;;;;;;5046093;28;20817;-79
2021/03/31 11:37:26;;;;;;;22.37;12.00;;;21.60;92.60;;;;;;5043309;28;20458;-78
2021/03/31 11:39:53;;;;;;;19.50;10.97;;;20.90;92.50;;;;;;5047693;28;20432;-79
2021/03/31 11:42:19;;;;;;;19.33;12.10;;;21.10;93.30;;;;;;5043031;28;20453;-79
2021/03/31 11:44:45;;;;;;;23.73;13.70;;;21.20;93.20;;;;;;5041422;28;20797;-79
2021/03/31 11:47:12;;;;;;;21.67;14.50;;;21.10;90.90;;;;;;5042003;28;20470;-79
2021/03/31 11:49:38;;;;;;;19.67;13.70;;;21.20;92.30;;;;;;5044163;28;20458;-78
2021/03/31 11:52:04;;;;;;;25.83;13.80;;;21.30;93.80;;;;;;5040784;28;20487;-79
2021/03/31 11:54:30;;;;;;;22.20;14.07;;;21.20;93.60;;;;;;5041634;28;20977;-79
2021/03/31 11:56:57;;;;;;;30.13;17.93;;;21.20;93.80;;;;;;5043280;28;20470;-78
2021/03/31 11:59:23;;;;;;;18.03;12.37;;;21.00;95.90;;;;;;5039376;28;20454;-79
2021/03/31 12:01:49;;;;;;;20.00;13.40;;;21.10;93.20;;;;;;5043360;28;20446;-80
2021/03/31 12:04:16;;;;;;;26.60;11.27;;;21.50;95.30;;;;;;5045151;28;20435;-79
2021/03/31 12:06:43;;;;;;;20.53;11.03;;;21.30;94.50;;;;;;5046593;28;20501;-79
2021/03/31 12:09:10;;;;;;;18.50;11.83;;;21.40;94.40;;;;;;5042394;28;20447;-79
2021/03/31 12:11:37;;;;;;;18.43;12.53;;;21.50;92.30;;;;;;5043632;28;20483;-80
2021/03/31 12:14:03;;;;;;;20.00;12.60;;;22.50;93.10;;;;;;5046009;28;20446;-80
2021/03/31 12:16:30;;;;;;;17.83;12.93;;;21.50;91.80;;;;;;5040799;28;20474;-78
2021/03/31 12:18:56;;;;;;;18.37;12.63;;;21.30;92.00;;;;;;5037254;28;20494;-78
2021/03/31 12:21:23;;;;;;;20.13;10.60;;;21.50;92.50;;;;;;5039051;28;20798;-79
2021/03/31 12:23:49;;;;;;;23.47;12.80;;;21.50;92.80;;;;;;5038898;28;20801;-78
2021/03/31 12:26:16;;;;;;;16.60;11.30;;;21.70;92.00;;;;;;5037508;28;20474;-79
2021/03/31 12:28:48;;;;;;;18.83;10.70;;;;;;;;;;5040611;28;20442;-81
2021/03/31 12:31:14;;;;;;;17.70;11.67;;;21.60;89.80;;;;;;5043361;28;20485;-84
2021/03/31 12:33:40;;;;;;;17.50;9.93;;;21.50;92.00;;;;;;5047507;28;20454;-80
2021/03/31 12:36:07;;;;;;;24.13;11.77;;;22.30;90.10;;;;;;5046095;28;20463;-79
2021/03/31 12:38:34;;;;;;;22.53;12.10;;;22.00;88.50;;;;;;5041081;28;20458;-78
2021/03/31 12:41:00;;;;;;;16.27;10.07;;;21.80;91.10;;;;;;5039405;28;20432;-78
2021/03/31 12:43:26;;;;;;;19.07;11.00;;;22.10;91.80;;;;;;5040011;28;20434;-79
2021/03/31 12:45:52;;;;;;;17.23;10.80;;;21.90;87.10;;;;;;5039002;28;20470;-79
2021/03/31 12:48:18;;;;;;;19.03;9.93;;;21.80;86.10;;;;;;5041380;28;20446;-79
2021/03/31 12:50:45;;;;;;;17.40;10.63;;;21.70;90.70;;;;;;5041565;28;20471;-80
2021/03/31 12:53:18;;;;;;;18.90;11.60;;;22.00;90.90;;;;;;5041487;28;20489;-78
2021/03/31 12:55:48;;;;;;;21.47;10.70;;;21.10;82.30;;;;;;5037920;28;20518;-79
2021/03/31 12:58:17;;;;;;;18.53;11.07;;;21.90;86.60;;;;;;5040431;28;20430;-79
2021/03/31 13:00:44;;;;;;;17.37;10.07;;;21.80;83.90;;;;;;5041652;28;20435;-79
2021/03/31 13:03:10;;;;;;;17.70;9.40;;;21.80;90.30;;;;;;5046457;28;20506;-83
2021/03/31 13:05:39;;;;;;;16.23;9.13;;;21.90;90.60;;;;;;5048022;28;20523;-84
2021/03/31 13:08:07;;;;;;;18.87;10.37;;;22.00;91.60;;;;;;5046908;28;20469;-84
2021/03/31 13:10:34;;;;;;;14.83;7.70;;;21.70;96.60;;;;;;5045301;28;20435;-84
2021/03/31 13:13:04;;;;;;;18.20;7.70;;;21.90;94.00;;;;;;5049546;28;20900;-84
2021/03/31 13:15:34;;;;;;;21.67;8.30;;;22.00;94.60;;;;;;5043779;28;20462;-84
2021/03/31 13:18:09;;;;;;;12.17;8.77;;;21.90;95.50;;;;;;5046115;28;20522;-83
2021/03/31 13:23:37;;;;;;;15.53;8.70;;;21.90;96.00;;;;;;5056769;28;20465;-83
2021/03/31 13:26:07;;;;;;;13.30;8.13;;;21.90;94.20;;;;;;5053770;28;20458;-84
2021/03/31 13:29:06;;;;;;;14.50;8.27;;;22.10;95.00;;;;;;5050378;28;20434;-83